Time;durP1;ratioP1;P1;durP2;ratioP2;P2;SDS_P1;SDS_P2;PMS_P1;PMS_P2;Temp;Humidity;BMP_temperature;BMP_pressure;BME280_temperature;BME280_humidity;BME280_pressure;Samples;Min_cycle;Max_cycle;Signal;HPM_P1;HPM_P2
2022/07/27 00:01:27;;;;;;;3.50;2.50;;;;;;;29.08;43.33;100362.03;5047921;28;20056;-70
2022/07/27 00:03:55;;;;;;;2.17;1.90;;;;;;;28.87;44.75;100353.78;5054179;28;20045;-71
2022/07/27 00:06:23;;;;;;;2.70;2.00;;;;;;;28.87;44.64;100346.09;5051412;28;20049;-70
2022/07/27 00:08:51;;;;;;;3.75;2.30;;;;;;;28.74;46.36;100350.59;5054540;28;20399;-70
2022/07/27 00:11:20;;;;;;;2.78;2.00;;;;;;;28.52;47.34;100345.88;5054477;28;20045;-70
2022/07/27 00:13:47;;;;;;;3.28;2.20;;;;;;;28.40;48.00;100349.16;5052466;28;20526;-70
2022/07/27 00:16:15;;;;;;;2.95;2.15;;;;;;;28.41;48.20;100374.09;5053672;28;20052;-70
2022/07/27 00:18:44;;;;;;;3.90;1.92;;;;;;;28.02;51.43;100378.59;5052190;28;20055;-70
2022/07/27 00:21:13;;;;;;;6.63;2.47;;;;;;;28.03;52.15;100404.72;5052851;28;20510;-70
2022/07/27 00:23:41;;;;;;;2.55;2.35;;;;;;;27.88;53.85;100427.25;5054045;28;20064;-70
2022/07/27 00:26:10;;;;;;;2.70;2.33;;;;;;;27.68;54.78;100428.88;5053409;28;20407;-70
2022/07/27 00:28:38;;;;;;;4.18;2.85;;;;;;;27.55;57.99;100437.66;5052856;28;20049;-71
2022/07/27 00:31:08;;;;;;;3.28;2.38;;;;;;;27.28;59.37;100452.13;5052155;28;20040;-70
2022/07/27 00:33:37;;;;;;;5.43;3.45;;;;;;;27.02;61.72;100448.44;5052353;28;20056;-70
2022/07/27 00:36:06;;;;;;;6.25;2.90;;;;;;;26.89;62.98;100464.00;5053817;28;20048;-70
2022/07/27 00:38:34;;;;;;;6.00;3.30;;;;;;;26.58;67.07;100458.66;5053450;28;20049;-70
2022/07/27 00:41:03;;;;;;;5.65;3.45;;;;;;;26.36;70.29;100475.41;5052721;28;20060;-70
2022/07/27 00:43:31;;;;;;;4.40;3.20;;;;;;;25.84;71.21;100479.00;5053730;28;20049;-70
2022/07/27 00:45:58;;;;;;;4.72;3.20;;;;;;;25.52;74.58;100495.50;5046484;28;20463;-70
2022/07/27 00:48:31;;;;;;;5.43;3.35;;;;;;;25.38;76.49;100519.38;5051513;28;20057;-70
2022/07/27 00:51:02;;;;;;;7.93;3.03;;;;;;;25.05;75.78;100507.00;5052822;28;20057;-69
2022/07/27 00:53:30;;;;;;;6.20;3.25;;;;;;;24.69;79.35;100527.72;5052424;28;20060;-69
2022/07/27 00:55:58;;;;;;;10.57;3.67;;;;;;;24.47;83.01;100525.81;5052556;28;20056;-69
2022/07/27 00:58:28;;;;;;;7.38;3.63;;;;;;;24.19;83.27;100497.03;5053387;28;20065;-69
2022/07/27 01:00:56;;;;;;;6.55;3.15;;;;;;;24.42;83.46;100493.38;5047162;28;20514;-69
2022/07/27 01:03:24;;;;;;;9.20;3.15;;;;;;;24.86;82.55;100486.41;5052837;28;20045;-71
2022/07/27 01:05:57;;;;;;;8.65;3.53;;;;;;;24.29;87.51;100478.81;5053067;28;20479;-71
2022/07/27 01:08:28;;;;;;;6.57;3.50;;;;;;;24.13;90.81;100478.97;5051974;28;20044;-71
2022/07/27 01:11:01;;;;;;;6.55;3.58;;;;;;;24.12;93.47;100472.59;5047754;28;20057;-59
2022/07/27 01:13:29;;;;;;;7.40;3.92;;;;;;;24.08;93.85;100466.13;5048680;28;20408;-72
2022/07/27 01:16:02;;;;;;;5.22;3.60;;;;;;;23.98;94.00;100461.16;5050726;28;20045;-71
2022/07/27 01:18:36;;;;;;;8.23;3.75;;;;;;;23.94;93.82;100471.47;5052831;28;20357;-71
2022/07/27 01:21:06;;;;;;;8.20;4.07;;;;;;;23.89;95.13;100492.97;5050390;28;20495;-71
2022/07/27 01:23:38;;;;;;;7.10;3.78;;;;;;;23.92;97.39;100490.59;5045463;28;20399;-71
2022/07/27 01:26:06;;;;;;;5.72;3.65;;;;;;;24.09;97.99;100501.28;5050611;28;20049;-71
2022/07/27 01:28:34;;;;;;;10.90;4.28;;;;;;;23.94;98.76;100507.81;5051016;28;20048;-71
2022/07/27 01:31:03;;;;;;;7.32;4.43;;;;;;;23.74;100.00;100519.84;5044569;28;20049;-63
2022/07/27 01:33:36;;;;;;;9.07;4.40;;;;;;;23.69;100.00;100519.34;5046980;28;20053;-64
2022/07/27 01:36:04;;;;;;;6.10;3.90;;;;;;;23.76;100.00;100513.91;5045427;28;20041;-63
2022/07/27 01:38:32;;;;;;;8.20;4.60;;;;;;;23.72;100.00;100507.44;5047418;28;20050;-67
2022/07/27 01:41:00;;;;;;;7.07;4.70;;;;;;;23.72;100.00;100510.22;5041200;28;20069;-62
2022/07/27 01:43:28;;;;;;;8.73;4.45;;;;;;;23.56;100.00;100501.97;5032187;28;20041;-66
2022/07/27 01:45:56;;;;;;;9.40;4.68;;;;;;;23.45;100.00;100507.34;5042138;28;20045;-63
2022/07/27 01:48:25;;;;;;;9.30;4.82;;;;;;;23.42;100.00;100502.53;5046511;28;20052;-64
2022/07/27 01:50:53;;;;;;;7.72;4.68;;;;;;;23.40;100.00;100493.72;5043824;28;20041;-64
2022/07/27 01:53:22;;;;;;;5.70;4.10;;;;;;;23.34;100.00;100496.81;5044617;28;20491;-64
2022/07/27 01:55:51;;;;;;;8.00;4.57;;;;;;;23.15;100.00;100492.00;5047998;28;20499;-63
2022/07/27 01:58:19;;;;;;;5.57;4.15;;;;;;;23.20;100.00;100496.47;5038208;28;20037;-64
2022/07/27 02:00:50;;;;;;;6.68;4.18;;;;;;;23.11;100.00;100498.72;5042600;28;20048;-71
2022/07/27 02:03:18;;;;;;;5.70;4.13;;;;;;;23.00;100.00;100504.88;5048143;28;20376;-71
2022/07/27 02:05:46;;;;;;;7.78;4.18;;;;;;;22.89;100.00;100499.09;5034152;28;20056;-71
2022/07/27 02:08:14;;;;;;;6.00;3.47;;;;;;;22.83;100.00;100511.72;5050248;28;20044;-70
2022/07/27 02:13:28;;;;;;;5.78;3.25;;;;;;;22.65;100.00;100526.06;5045449;28;20052;-70
2022/07/27 02:15:57;;;;;;;4.32;3.30;;;;;;;22.81;100.00;100514.88;5013252;28;20050;-71
2022/07/27 02:18:26;;;;;;;7.65;3.75;;;;;;;23.14;100.00;100503.53;5039419;28;20052;-71
2022/07/27 02:21:04;;;;;;;3.72;2.97;;;;;;;23.05;94.21;100485.06;5049297;28;20048;-71
2022/07/27 02:23:34;;;;;;;3.95;3.13;;;;;;;23.05;95.23;100471.09;5050968;28;20072;-71
2022/07/27 02:26:03;;;;;;;3.65;2.90;;;;;;;22.88;95.74;100461.19;5051563;28;20068;-71
2022/07/27 02:28:32;;;;;;;4.13;3.00;;;;;;;22.84;98.24;100445.56;5051111;28;20518;-72
2022/07/27 02:31:00;;;;;;;6.82;4.07;;;;;;;22.61;98.69;100424.78;5051202;28;20518;-71
2022/07/27 02:33:28;;;;;;;5.75;3.05;;;;;;;22.71;98.94;100434.53;5051440;28;20060;-72
2022/07/27 02:35:56;;;;;;;5.22;3.22;;;;;;;22.67;100.00;100440.06;5050084;28;20071;-72
2022/07/27 02:38:24;;;;;;;5.55;3.47;;;;;;;22.80;100.00;100434.31;5050932;28;20135;-71
2022/07/27 02:40:52;;;;;;;3.50;3.00;;;;;;;22.92;98.51;100438.97;5050979;28;20045;-71
2022/07/27 02:43:20;;;;;;;4.65;3.20;;;;;;;23.15;97.58;100443.75;5049212;28;20403;-71
2022/07/27 02:45:50;;;;;;;3.10;2.80;;;;;;;23.12;98.97;100422.97;5051226;28;20048;-71
2022/07/27 02:48:18;;;;;;;4.70;3.55;;;;;;;22.96;99.28;100400.75;5040132;28;20049;-71
2022/07/27 02:50:46;;;;;;;5.45;3.55;;;;;;;23.05;98.41;100370.63;5050087;28;20056;-71
2022/07/27 02:53:15;;;;;;;4.65;3.25;;;;;;;23.15;97.70;100363.63;5033274;28;20079;-72
2022/07/27 02:55:42;;;;;;;5.18;3.78;;;;;;;23.19;98.29;100367.31;5051145;28;20396;-72
2022/07/27 02:58:10;;;;;;;4.63;3.33;;;;;;;23.22;96.03;100371.34;5050420;28;20045;-72
2022/07/27 03:00:39;;;;;;;4.10;3.17;;;;;;;23.06;98.08;100371.44;5050132;28;20052;-72
2022/07/27 03:03:07;;;;;;;3.75;3.42;;;;;;;23.12;99.14;100369.16;5051529;28;20052;-71
2022/07/27 03:05:35;;;;;;;6.05;3.45;;;;;;;23.19;100.00;100372.06;5050914;28;20049;-71
2022/07/27 03:08:03;;;;;;;5.03;3.85;;;;;;;23.39;99.38;100394.34;5051137;28;20041;-71
2022/07/27 03:10:33;;;;;;;5.22;3.35;;;;;;;22.77;97.95;100374.50;5050714;28;20571;-71
2022/07/27 03:13:01;;;;;;;5.53;3.63;;;;;;;22.87;100.00;100366.72;5047952;28;20045;-72
2022/07/27 03:15:31;;;;;;;6.47;3.95;;;;;;;22.49;100.00;100349.63;5050903;28;20395;-72
2022/07/27 03:18:00;;;;;;;5.72;3.75;;;;;;;22.30;100.00;100348.47;5050470;28;20057;-71
2022/07/27 03:20:28;;;;;;;3.85;3.33;;;;;;;22.48;99.61;100339.66;5051049;28;20499;-72
2022/07/27 03:22:56;;;;;;;4.60;3.78;;;;;;;22.75;100.00;100325.84;5050636;28;20064;-72
2022/07/27 03:25:24;;;;;;;5.68;3.75;;;;;;;22.55;98.81;100325.88;5050899;28;20045;-72
2022/07/27 03:27:52;;;;;;;5.43;3.60;;;;;;;22.68;98.77;100348.84;5051070;28;20060;-72
2022/07/27 03:30:20;;;;;;;5.50;3.83;;;;;;;22.72;100.00;100354.47;5050859;28;20484;-72
2022/07/27 03:32:48;;;;;;;6.47;4.10;;;;;;;22.80;100.00;100343.09;5050798;28;20049;-72
2022/07/27 03:35:16;;;;;;;5.00;3.15;;;;;;;22.68;98.54;100351.63;5050714;28;20128;-72
2022/07/27 03:37:46;;;;;;;5.22;3.92;;;;;;;22.66;99.46;100356.75;5050995;28;20045;-72
2022/07/27 03:40:17;;;;;;;7.28;4.22;;;;;;;22.75;100.00;100360.13;5050340;28;20045;-72
2022/07/27 03:42:45;;;;;;;6.78;3.75;;;;;;;22.73;98.93;100359.66;5040618;28;20049;-72
2022/07/27 03:45:13;;;;;;;4.88;3.33;;;;;;;22.82;98.23;100343.53;5043954;28;20384;-73
2022/07/27 03:47:41;;;;;;;6.30;4.07;;;;;;;22.88;98.90;100352.38;5039228;28;20411;-72
2022/07/27 03:50:09;;;;;;;7.32;4.10;;;;;;;22.83;98.82;100369.44;5048184;28;20049;-72
2022/07/27 03:52:37;;;;;;;4.72;4.05;;;;;;;22.84;98.54;100356.28;5061398;28;20055;-72
2022/07/27 03:55:06;;;;;;;6.47;3.97;;;;;;;22.91;98.47;100350.84;5054178;28;20045;-73
2022/07/27 03:57:34;;;;;;;5.97;4.05;;;;;;;23.09;97.80;100351.97;5054097;28;20045;-72
2022/07/27 04:00:03;;;;;;;4.70;3.60;;;;;;;23.11;97.10;100353.59;5053634;28;20551;-72
2022/07/27 04:02:31;;;;;;;4.80;3.90;;;;;;;23.17;96.39;100352.09;5053362;28;20045;-72
2022/07/27 04:04:59;;;;;;;6.47;3.90;;;;;;;23.25;97.68;100350.25;5053893;28;20041;-72
2022/07/27 04:07:28;;;;;;;5.65;3.92;;;;;;;23.33;95.94;100354.78;5054147;28;20040;-73
2022/07/27 04:09:58;;;;;;;5.28;3.63;;;;;;;23.49;96.97;100354.66;5053670;28;20080;-72
2022/07/27 04:12:26;;;;;;;6.80;4.28;;;;;;;23.45;96.40;100367.72;5053247;28;20049;-72
2022/07/27 04:14:53;;;;;;;4.70;3.90;;;;;;;23.29;99.82;100382.63;5053769;28;20048;-73
2022/07/27 04:17:23;;;;;;;5.00;3.55;;;;;;;23.29;96.53;100381.81;5052798;28;20392;-72
2022/07/27 04:20:11;;;;;;;5.15;4.07;;;;;;;23.26;97.09;100388.94;5052828;28;20062;-72
2022/07/27 04:22:39;;;;;;;6.43;4.07;;;;;;;23.24;96.05;100380.13;5052646;28;20040;-72
2022/07/27 04:25:07;;;;;;;7.53;4.57;;;;;;;23.30;95.75;100359.09;5053783;28;20041;-73
2022/07/27 04:27:35;;;;;;;7.53;4.10;;;;;;;23.25;95.37;100353.03;5048962;28;20497;-73
2022/07/27 04:30:04;;;;;;;5.18;3.63;;;;;;;23.76;94.53;100358.25;5054042;28;20053;-75
2022/07/27 04:32:37;;;;;;;5.22;3.80;;;;;;;24.15;91.72;100362.81;5034506;28;20498;-75
2022/07/27 04:35:06;;;;;;;5.13;3.75;;;;;;;24.71;88.72;100373.47;5034960;28;20051;-74
2022/07/27 04:37:35;;;;;;;6.78;4.85;;;;;;;24.81;89.12;100372.81;5041351;28;20056;-75
2022/07/27 04:40:07;;;;;;;7.40;5.20;;;;;;;24.80;89.93;100381.56;5004109;28;20060;-75
2022/07/27 04:42:35;;;;;;;6.20;4.97;;;;;;;24.89;88.82;100390.50;5027498;28;20052;-75
2022/07/27 04:45:15;;;;;;;7.05;5.22;;;;;;;25.15;85.88;100385.94;5033227;28;20045;-74
2022/07/27 04:47:43;;;;;;;6.97;4.85;;;;;;;25.18;85.71;100390.75;5009654;28;20041;-75
2022/07/27 04:50:11;;;;;;;9.40;4.88;;;;;;;25.36;84.40;100402.13;5034830;28;20057;-75
2022/07/27 04:52:39;;;;;;;5.80;4.18;;;;;;;25.46;83.62;100397.81;5015980;28;20040;-75
2022/07/27 04:55:07;;;;;;;6.13;4.93;;;;;;;25.40;84.00;100382.56;5034689;28;20407;-75
2022/07/27 04:57:35;;;;;;;8.13;4.93;;;;;;;25.21;85.22;100356.41;5030119;28;20388;-74
2022/07/27 05:00:05;;;;;;;9.63;4.63;;;;;;;25.05;84.79;100342.66;5027475;28;20052;-74
2022/07/27 05:02:33;;;;;;;4.82;4.20;;;;;;;25.02;85.68;100318.25;5014556;28;20487;-74
2022/07/27 05:05:01;;;;;;;6.25;4.95;;;;;;;24.83;86.90;100305.28;5018316;28;20059;-75
2022/07/27 05:07:29;;;;;;;6.28;4.82;;;;;;;24.72;86.14;100304.34;5028763;28;20045;-74
2022/07/27 05:09:57;;;;;;;6.72;4.53;;;;;;;24.53;86.87;100294.94;5034420;28;20534;-75
2022/07/27 05:12:25;;;;;;;5.60;4.05;;;;;;;24.62;86.32;100298.25;5014545;28;20072;-74
2022/07/27 05:14:53;;;;;;;5.47;4.40;;;;;;;24.85;85.79;100305.69;5051803;28;20056;-74
2022/07/27 05:17:21;;;;;;;5.35;4.18;;;;;;;24.82;84.70;100306.44;5051680;28;20045;-75
2022/07/27 05:19:49;;;;;;;6.90;4.10;;;;;;;25.00;84.54;100291.81;5046720;28;20044;-75
2022/07/27 05:22:16;;;;;;;5.38;4.03;;;;;;;25.06;82.42;100298.66;5045936;28;20040;-75
2022/07/27 05:24:44;;;;;;;4.25;3.63;;;;;;;24.93;81.14;100287.78;5050916;28;20052;-75
2022/07/27 05:27:12;;;;;;;4.40;3.15;;;;;;;25.19;79.18;100290.78;5040965;28;20045;-75
2022/07/27 05:29:40;;;;;;;5.38;3.75;;;;;;;25.30;79.06;100286.06;5064448;28;20041;-80
2022/07/27 05:32:08;;;;;;;4.18;3.45;;;;;;;25.49;79.24;100287.81;5044960;28;20042;-80
2022/07/27 05:34:37;;;;;;;6.97;3.92;;;;;;;25.53;80.29;100281.41;5040335;28;20045;-79
2022/07/27 05:37:05;;;;;;;4.85;3.53;;;;;;;25.66;76.96;100279.91;5036843;28;20052;-79
2022/07/27 05:39:33;;;;;;;6.13;4.00;;;;;;;25.71;77.58;100262.72;5045092;28;20045;-80
2022/07/27 05:42:01;;;;;;;6.15;4.00;;;;;;;25.67;78.37;100253.53;5041172;28;20052;-79
2022/07/27 05:44:28;;;;;;;8.27;3.83;;;;;;;25.71;77.81;100251.53;5052672;28;20037;-79
2022/07/27 05:46:56;;;;;;;6.20;3.50;;;;;;;25.81;77.99;100251.97;5051587;28;20048;-78
2022/07/27 05:49:24;;;;;;;5.47;3.67;;;;;;;25.62;77.29;100260.28;5037590;28;20045;-79
2022/07/27 05:51:52;;;;;;;4.95;3.30;;;;;;;25.71;77.21;100271.13;5048743;28;20049;-79
2022/07/27 05:54:20;;;;;;;4.60;2.85;;;;;;;25.89;75.37;100274.03;5032113;28;20033;-78
2022/07/27 05:56:48;;;;;;;5.78;3.90;;;;;;;25.81;73.09;100271.59;5035731;28;20483;-77
2022/07/27 05:59:16;;;;;;;4.60;3.00;;;;;;;26.05;72.99;100288.94;5049492;28;20048;-74
2022/07/27 06:01:44;;;;;;;4.53;2.88;;;;;;;26.05;71.64;100300.94;5048076;28;20056;-74
2022/07/27 06:04:12;;;;;;;6.50;3.17;;;;;;;26.11;73.45;100309.78;5047576;28;20049;-73
2022/07/27 06:09:27;;;;;;;5.03;3.72;;;;;;;26.25;74.93;100320.28;5039675;28;20037;-74
2022/07/27 06:11:55;;;;;;;4.35;3.75;;;;;;;26.48;74.17;100319.94;5044312;28;20041;-75
2022/07/27 06:14:23;;;;;;;8.23;4.10;;;;;;;26.28;77.03;100317.50;5051762;28;20575;-75
2022/07/27 06:16:51;;;;;;;6.97;4.35;;;;;;;26.36;76.75;100311.91;5050647;28;20049;-75
2022/07/27 06:19:19;;;;;;;5.07;3.83;;;;;;;26.23;77.55;100301.03;5051850;28;20048;-85
2022/07/27 06:21:47;;;;;;;7.05;3.55;;;;;;;26.43;75.79;100297.88;5051933;28;20041;-85
2022/07/27 06:24:20;;;;;;;7.47;3.90;;;;;;;26.50;74.94;100303.53;5051792;28;20045;-85
2022/07/27 06:26:48;;;;;;;5.35;4.03;;;;;;;26.36;74.34;100295.88;5050479;28;20044;-86
2022/07/27 06:29:16;;;;;;;5.63;3.97;;;;;;;26.11;75.34;100290.16;5051681;28;20415;-86
2022/07/27 06:31:45;;;;;;;6.13;4.38;;;;;;;26.21;75.01;100286.59;5050611;28;20072;-86
2022/07/27 06:34:13;;;;;;;7.50;4.53;;;;;;;26.12;75.31;100291.75;5051617;28;20045;-86
2022/07/27 06:36:43;;;;;;;6.95;4.05;;;;;;;26.20;73.32;100295.41;5050559;28;20052;-86
2022/07/27 06:39:11;;;;;;;7.32;4.70;;;;;;;26.23;73.59;100295.44;5051618;28;20048;-85
2022/07/27 06:41:40;;;;;;;7.45;4.32;;;;;;;26.30;74.05;100306.66;5051774;28;20051;-86
2022/07/27 06:44:12;;;;;;;5.22;4.10;;;;;;;26.42;74.01;100299.09;5051690;28;20049;-86
2022/07/27 06:46:41;;;;;;;5.55;3.67;;;;;;;26.48;74.18;100299.53;5051184;28;20041;-86
2022/07/27 06:49:09;;;;;;;6.43;4.13;;;;;;;26.56;75.50;100301.13;5051749;28;20045;-87
2022/07/27 06:51:38;;;;;;;5.93;4.63;;;;;;;26.51;74.66;100299.53;5050249;28;20041;-87
2022/07/27 06:54:06;;;;;;;6.85;3.85;;;;;;;26.72;74.50;100323.22;5050385;28;20053;-86
2022/07/27 06:56:34;;;;;;;7.28;4.03;;;;;;;26.75;74.21;100328.03;5038980;28;20587;-86
2022/07/27 06:59:01;;;;;;;6.28;4.25;;;;;;;26.77;75.03;100331.25;5051431;28;20048;-87
2022/07/27 07:01:29;;;;;;;5.72;4.22;;;;;;;26.86;74.73;100336.47;5051413;28;20037;-86
2022/07/27 07:03:58;;;;;;;12.52;4.47;;;;;;;26.82;75.17;100346.88;5051514;28;20364;-86
2022/07/27 07:06:26;;;;;;;5.28;4.00;;;;;;;26.82;74.97;100336.47;5051177;28;20049;-86
2022/07/27 07:08:54;;;;;;;6.93;4.55;;;;;;;26.79;73.87;100342.88;5051357;28;20055;-87
2022/07/27 07:11:22;;;;;;;4.80;3.80;;;;;;;26.78;71.87;100344.06;5051271;28;20056;-87
2022/07/27 07:13:50;;;;;;;4.43;3.60;;;;;;;26.78;72.92;100344.06;5050312;28;20041;-87
2022/07/27 07:16:18;;;;;;;7.22;3.90;;;;;;;26.87;72.56;100349.31;5051263;28;20041;-86
2022/07/27 07:18:46;;;;;;;5.78;4.53;;;;;;;26.83;71.58;100349.31;5051353;28;20411;-86
2022/07/27 07:21:19;;;;;;;6.75;4.07;;;;;;;26.81;72.07;100362.13;5051346;28;20045;-87
2022/07/27 07:23:47;;;;;;;5.65;3.95;;;;;;;26.81;72.82;100354.53;5053769;28;20045;-86
2022/07/27 07:26:15;;;;;;;4.95;3.70;;;;;;;27.11;71.83;100361.00;5057845;28;20045;-87
2022/07/27 07:28:43;;;;;;;7.13;5.05;;;;;;;27.09;73.76;100369.03;5055075;28;20044;-86
2022/07/27 07:31:10;;;;;;;7.40;4.63;;;;;;;27.17;73.63;100356.59;5055386;28;20045;-78
2022/07/27 07:33:38;;;;;;;5.95;4.10;;;;;;;27.46;72.75;100367.81;5053968;28;20047;-76
2022/07/27 07:36:06;;;;;;;5.88;4.50;;;;;;;27.55;71.63;100389.91;5055373;28;20502;-78
2022/07/27 07:38:42;;;;;;;8.50;5.45;;;;;;;27.51;70.72;100386.28;5053667;28;20049;-77
2022/07/27 07:41:10;;;;;;;7.45;4.93;;;;;;;27.75;69.29;100389.50;5054784;28;20048;-76
2022/07/27 07:43:38;;;;;;;6.45;4.43;;;;;;;27.80;68.85;100399.56;5053060;28;20048;-76
2022/07/27 07:46:07;;;;;;;6.55;4.10;;;;;;;28.14;66.81;100390.63;5054614;28;20048;-76
2022/07/27 07:48:35;;;;;;;6.00;3.70;;;;;;;28.31;65.48;100386.19;5054631;28;20053;-77
2022/07/27 07:51:03;;;;;;;5.78;3.95;;;;;;;28.46;64.68;100391.75;5054685;28;20407;-76
2022/07/27 07:53:31;;;;;;;6.03;4.28;;;;;;;28.46;64.80;100397.38;5052898;28;20503;-77
2022/07/27 07:56:05;;;;;;;6.20;4.10;;;;;;;28.51;64.33;100400.59;5040409;28;20487;-77
2022/07/27 07:58:32;;;;;;;6.38;4.47;;;;;;;28.56;64.29;100390.91;5052849;28;20049;-77
2022/07/27 08:01:00;;;;;;;4.57;3.33;;;;;;;28.66;61.74;100387.25;5054475;28;20041;-77
2022/07/27 08:03:28;;;;;;;6.57;4.00;;;;;;;28.66;62.46;100389.25;5052841;28;20045;-77
2022/07/27 08:05:56;;;;;;;4.18;3.58;;;;;;;28.81;61.18;100401.22;5054327;28;20056;-77
2022/07/27 08:08:26;;;;;;;4.40;3.17;;;;;;;28.85;60.49;100393.56;5054508;28;20041;-77
2022/07/27 08:10:54;;;;;;;6.00;3.50;;;;;;;28.85;60.34;100396.38;5054530;28;20041;-77
2022/07/27 08:13:22;;;;;;;4.45;3.38;;;;;;;28.97;59.50;100395.13;5052563;28;20052;-77
2022/07/27 08:15:51;;;;;;;7.75;3.40;;;;;;;29.07;58.58;100391.44;5054514;28;20052;-77
2022/07/27 08:18:20;;;;;;;5.97;3.58;;;;;;;28.92;58.55;100398.38;5054313;28;20041;-77
2022/07/27 08:20:48;;;;;;;5.00;3.28;;;;;;;28.78;59.12;100393.63;5054433;28;20055;-77
2022/07/27 08:23:16;;;;;;;6.50;4.05;;;;;;;28.60;59.29;100402.94;5054161;28;20049;-85
2022/07/27 08:25:44;;;;;;;5.05;3.85;;;;;;;28.69;58.86;100403.28;5054575;28;20053;-90
2022/07/27 08:28:12;;;;;;;4.97;3.38;;;;;;;28.94;58.76;100408.00;5070306;28;20391;-93
2022/07/27 08:30:40;;;;;;;4.10;3.20;;;;;;;28.96;57.44;100414.03;5053001;28;20048;-93
2022/07/27 08:33:10;;;;;;;5.03;3.72;;;;;;;29.08;56.91;100400.69;5036417;28;20045;-92
2022/07/27 08:35:38;;;;;;;5.10;3.05;;;;;;;29.15;56.93;100408.28;5037945;28;20048;-95
2022/07/27 08:38:08;;;;;;;5.53;3.40;;;;;;;29.26;56.21;100405.41;5021762;28;20045;-94
2022/07/27 08:40:37;;;;;;;4.18;3.22;;;;;;;29.43;55.22;100404.47;5035304;28;20050;-94
2022/07/27 08:43:11;;;;;;;6.00;3.90;;;;;;;29.36;55.47;100412.94;5036337;28;20037;-93
2022/07/27 08:45:40;;;;;;;5.13;3.05;;;;;;;29.44;56.34;100408.88;5020857;28;20056;-94
2022/07/27 08:48:12;;;;;;;5.93;4.13;;;;;;;29.27;55.76;100407.78;5020908;28;20045;-93
2022/07/27 08:50:41;;;;;;;4.28;3.80;;;;;;;29.24;56.47;100403.00;5020956;28;20480;-93
2022/07/27 08:53:12;;;;;;;7.45;4.38;;;;;;;29.27;56.99;100404.19;5021207;28;20048;-94
2022/07/27 08:55:42;;;;;;;4.93;3.90;;;;;;;29.20;56.62;100417.09;5017301;28;20042;-91
2022/07/27 08:58:11;;;;;;;6.47;3.70;;;;;;;29.28;57.39;100411.41;5006868;28;20053;-93
2022/07/27 09:00:43;;;;;;;4.88;3.85;;;;;;;29.44;57.30;100414.50;5052463;28;20059;-92
2022/07/27 09:03:13;;;;;;;4.88;4.38;;;;;;;29.33;55.68;100408.16;5020615;28;20044;-85
2022/07/27 09:05:52;;;;;;;6.30;4.00;;;;;;;29.47;54.73;100413.66;5053601;28;20060;-85
2022/07/27 09:08:23;;;;;;;5.55;3.90;;;;;;;29.40;56.46;100413.72;5053659;28;20053;-86
2022/07/27 09:10:54;;;;;;;5.28;4.20;;;;;;;29.33;56.51;100408.16;5053610;28;20048;-85
2022/07/27 09:13:31;;;;;;;6.45;3.63;;;;;;;29.29;56.79;100407.38;5053345;28;20054;-86
2022/07/27 09:16:09;;;;;;;4.22;3.55;;;;;;;29.45;54.09;100402.03;5053559;28;20055;-85
2022/07/27 09:18:56;;;;;;;6.60;3.92;;;;;;;29.49;55.32;100410.47;5040673;28;20056;-86
2022/07/27 09:21:25;;;;;;;4.22;3.70;;;;;;;29.61;53.89;100406.31;5053189;28;20049;-85
2022/07/27 09:24:10;;;;;;;3.70;3.22;;;;;;;29.62;52.99;100408.75;5053330;28;20052;-85
2022/07/27 09:27:02;;;;;;;5.75;3.90;;;;;;;29.61;51.91;100411.97;5053212;28;20048;-85
2022/07/27 09:29:35;;;;;;;5.82;3.38;;;;;;;29.75;52.18;100417.50;5053204;28;20041;-86
2022/07/27 09:32:13;;;;;;;3.65;3.20;;;;;;;29.66;50.68;100408.69;5053040;28;20403;-85
2022/07/27 09:34:42;;;;;;;5.53;3.05;;;;;;;29.93;49.87;100404.41;5053167;28;20049;-84
2022/07/27 09:37:11;;;;;;;4.72;3.53;;;;;;;29.77;49.09;100417.84;5031692;28;20484;-84
2022/07/27 09:39:39;;;;;;;5.78;3.55;;;;;;;29.98;50.39;100399.13;5045173;28;20530;-85
2022/07/27 09:42:15;;;;;;;5.28;3.50;;;;;;;30.04;51.21;100400.28;5068065;28;20049;-85
2022/07/27 09:45:23;;;;;;;4.72;3.33;;;;;;;29.92;49.65;100398.00;5052568;28;20063;-84
2022/07/27 09:48:11;;;;;;;5.75;3.45;;;;;;;30.16;48.45;100403.81;5052873;28;20053;-85
2022/07/27 09:50:42;;;;;;;3.95;3.35;;;;;;;30.22;48.57;100404.94;5052663;28;20056;-85
2022/07/27 09:53:31;;;;;;;7.78;3.53;;;;;;;30.17;50.27;100408.22;5051538;28;20045;-85
2022/07/27 09:56:13;;;;;;;7.05;3.60;;;;;;;30.17;49.27;100396.94;5036643;28;20467;-86
2022/07/27 09:58:50;;;;;;;6.55;4.13;;;;;;;30.09;50.39;100407.50;5051329;28;20056;-84
2022/07/27 10:01:21;;;;;;;4.85;3.90;;;;;;;29.98;50.80;100396.31;5052423;28;20049;-84
2022/07/27 10:03:51;;;;;;;5.90;3.70;;;;;;;30.40;49.99;100389.81;5051646;28;20057;-84
2022/07/27 10:06:21;;;;;;;7.32;4.00;;;;;;;30.19;49.21;100399.34;5051386;28;20371;-85
2022/07/27 10:08:54;;;;;;;4.97;3.70;;;;;;;30.06;50.67;100384.94;5052112;28;20045;-85
2022/07/27 10:11:23;;;;;;;4.07;3.35;;;;;;;30.38;49.04;100389.44;5052265;28;20033;-85
2022/07/27 10:13:52;;;;;;;4.38;3.60;;;;;;;30.48;48.72;100388.50;5052268;28;20571;-85
2022/07/27 10:16:23;;;;;;;4.63;3.10;;;;;;;30.70;47.78;100397.50;5050802;28;20049;-85
2022/07/27 10:19:06;;;;;;;3.30;2.72;;;;;;;30.74;48.44;100385.38;5052410;28;20056;-85
2022/07/27 10:21:39;;;;;;;4.15;2.92;;;;;;;30.64;47.86;100387.09;5052470;28;20056;-84
2022/07/27 10:24:09;;;;;;;3.15;2.85;;;;;;;30.83;46.74;100379.97;5052279;28;20041;-85
2022/07/27 10:26:42;;;;;;;4.22;2.75;;;;;;;30.69;44.66;100386.66;5051998;28;20056;-85
2022/07/27 10:29:12;;;;;;;3.47;2.72;;;;;;;30.77;45.91;100382.50;5052884;28;20056;-85
2022/07/27 10:31:52;;;;;;;3.67;2.80;;;;;;;30.84;46.38;100381.59;5052533;28;20049;-84
2022/07/27 10:34:41;;;;;;;3.58;3.17;;;;;;;31.18;46.56;100382.69;5052263;28;20056;-85
2022/07/27 10:37:12;;;;;;;3.75;3.33;;;;;;;31.18;47.39;100386.31;5052148;28;20045;-85
2022/07/27 10:39:43;;;;;;;2.72;2.40;;;;;;;30.92;42.96;100383.06;5052065;28;20051;-84
2022/07/27 10:42:20;;;;;;;3.05;2.70;;;;;;;30.93;42.71;100378.25;5050153;28;20037;-85
2022/07/27 10:45:01;;;;;;;4.20;3.20;;;;;;;31.15;44.90;100369.41;5051737;28;20052;-85
2022/07/27 10:47:36;;;;;;;3.13;2.85;;;;;;;31.52;44.31;100387.38;5051514;28;20514;-88
2022/07/27 10:50:16;;;;;;;2.90;2.65;;;;;;;31.06;43.56;100382.06;5041607;28;20041;-86
2022/07/27 10:52:55;;;;;;;2.45;2.25;;;;;;;30.60;43.13;100372.22;5050147;28;20622;-84
2022/07/27 10:55:32;;;;;;;2.72;2.42;;;;;;;30.89;43.41;100360.53;5040281;28;20370;-84
2022/07/27 10:58:03;;;;;;;2.67;2.42;;;;;;;31.07;42.65;100361.06;5050191;28;20048;-85
2022/07/27 11:00:54;;;;;;;3.03;2.72;;;;;;;31.24;40.80;100364.03;5051753;28;20773;-86
2022/07/27 11:03:29;;;;;;;3.40;2.88;;;;;;;30.97;41.90;100370.50;5046396;28;20052;-85
2022/07/27 11:06:04;;;;;;;2.88;2.67;;;;;;;31.00;41.76;100364.00;5051540;28;20057;-86
2022/07/27 11:08:53;;;;;;;3.55;2.60;;;;;;;30.92;41.51;100365.31;5050329;28;20041;-86
2022/07/27 11:11:42;;;;;;;4.47;2.70;;;;;;;30.80;41.79;100356.19;5051851;28;20040;-86
2022/07/27 11:14:10;;;;;;;4.72;2.60;;;;;;;31.35;41.51;100347.72;5051460;28;20045;-86
2022/07/27 11:16:40;;;;;;;2.70;2.50;;;;;;;31.31;40.82;100349.78;5051697;28;20048;-85
2022/07/27 11:19:23;;;;;;;3.65;2.67;;;;;;;31.39;40.47;100347.66;5051579;28;20045;-86
2022/07/27 11:21:52;;;;;;;2.80;2.60;;;;;;;31.33;40.32;100341.66;5051569;28;20597;-85
2022/07/27 11:24:22;;;;;;;5.25;2.67;;;;;;;31.51;39.98;100343.38;5049963;28;20522;-84
2022/07/27 11:26:51;;;;;;;2.53;2.30;;;;;;;31.68;39.23;100335.00;5051440;28;20041;-86
2022/07/27 11:29:22;;;;;;;2.85;2.53;;;;;;;31.87;39.36;100324.97;5051381;28;20053;-85
2022/07/27 11:31:53;;;;;;;3.15;2.78;;;;;;;32.16;38.05;100325.19;5051439;28;20052;-85
2022/07/27 11:34:32;;;;;;;3.40;2.10;;;;;;;32.22;38.49;100325.47;5051347;28;20060;-86
2022/07/27 11:37:04;;;;;;;2.50;2.30;;;;;;;32.41;38.43;100323.06;5051473;28;20052;-84
2022/07/27 11:39:33;;;;;;;5.07;2.50;;;;;;;32.50;37.60;100311.16;5051251;28;20510;-82
2022/07/27 11:42:21;;;;;;;3.90;2.65;;;;;;;32.27;37.85;100313.63;5051143;28;20049;-84
2022/07/27 11:44:51;;;;;;;2.97;2.17;;;;;;;32.44;36.93;100305.19;5049948;28;20072;-83